Time;durP1;ratioP1;P1;durP2;ratioP2;P2;SDS_P1;SDS_P2;PMS_P1;PMS_P2;Temp;Humidity;BMP_temperature;BMP_pressure;BME280_temperature;BME280_humidity;BME280_pressure;Samples;Min_cycle;Max_cycle;Signal;HPM_P1;HPM_P2
2024/02/10 00:00:26;;;;;;;45.33;24.45;;;8.10;99.90;;;;;;4954694;28;20042;-74
2024/02/10 00:02:54;;;;;;;49.55;25.33;;;8.10;99.90;;;;;;4954225;28;20043;-72
2024/02/10 00:05:23;;;;;;;56.05;27.52;;;8.00;99.90;;;;;;4937299;28;20118;-72
2024/02/10 00:07:52;;;;;;;56.90;26.65;;;8.10;99.90;;;;;;4937449;29;20042;-74
2024/02/10 00:10:20;;;;;;;54.58;26.58;;;8.10;99.90;;;;;;4933391;29;20052;-73
2024/02/10 00:12:47;;;;;;;48.65;25.05;;;8.00;99.90;;;;;;4934822;29;20020;-71
2024/02/10 00:15:14;;;;;;;57.08;25.60;;;8.00;99.90;;;;;;4933873;29;20024;-74
2024/02/10 00:17:40;;;;;;;45.28;23.98;;;8.00;99.90;;;;;;4934966;29;20047;-73
2024/02/10 00:20:13;;;;;;;47.63;24.00;;;8.00;99.90;;;;;;4933699;29;20060;-73
2024/02/10 00:22:39;;;;;;;47.28;23.90;;;8.10;99.90;;;;;;4934202;29;20095;-72
2024/02/10 00:25:05;;;;;;;47.88;24.50;;;8.10;99.90;;;;;;4934916;29;20032;-73
2024/02/10 00:27:31;;;;;;;45.60;22.25;;;8.10;99.90;;;;;;4934218;29;20032;-74
2024/02/10 00:29:58;;;;;;;43.38;22.48;;;8.10;99.90;;;;;;4934827;29;20123;-73
2024/02/10 00:32:24;;;;;;;44.78;23.45;;;8.10;99.90;;;;;;4934822;29;20095;-75
2024/02/10 00:34:49;;;;;;;49.58;23.55;;;8.20;99.90;;;;;;4935000;29;20024;-72
2024/02/10 00:37:16;;;;;;;47.35;23.42;;;8.20;99.90;;;;;;4934852;29;20032;-72
2024/02/10 00:39:43;;;;;;;45.00;23.13;;;8.20;99.90;;;;;;4933214;29;20028;-75
2024/02/10 00:42:09;;;;;;;46.22;23.25;;;8.20;99.90;;;;;;4933716;29;20051;-73
2024/02/10 00:44:34;;;;;;;46.17;23.15;;;8.20;99.90;;;;;;4935115;29;20034;-73
2024/02/10 00:47:04;;;;;;;36.05;20.63;;;8.20;99.90;;;;;;4932813;29;20040;-73
2024/02/10 00:49:30;;;;;;;39.05;21.02;;;8.10;99.90;;;;;;4934772;29;20026;-72
2024/02/10 00:51:57;;;;;;;40.53;21.52;;;8.10;99.90;;;;;;4933443;29;20446;-73
2024/02/10 00:54:27;;;;;;;46.97;24.02;;;8.10;99.90;;;;;;4934767;29;20109;-74
2024/02/10 00:56:53;;;;;;;35.03;20.45;;;8.10;99.90;;;;;;4934914;29;20020;-73
2024/02/10 00:59:21;;;;;;;39.15;21.70;;;8.00;99.90;;;;;;4932380;29;20028;-72
2024/02/10 01:01:47;;;;;;;41.10;22.00;;;8.00;99.90;;;;;;4934139;29;20024;-72
2024/02/10 01:04:12;;;;;;;46.30;23.65;;;8.00;99.90;;;;;;4933523;29;20028;-73
2024/02/10 01:06:39;;;;;;;38.95;22.45;;;8.00;99.90;;;;;;4933036;29;20039;-74
2024/02/10 01:09:07;;;;;;;35.95;20.50;;;8.00;99.90;;;;;;4932829;29;20060;-73
2024/02/10 01:11:33;;;;;;;39.45;21.63;;;8.00;99.90;;;;;;4934880;29;20208;-74
2024/02/10 01:14:00;;;;;;;33.85;20.08;;;8.00;99.90;;;;;;4932271;29;20382;-72
2024/02/10 01:16:26;;;;;;;40.10;21.80;;;8.00;99.90;;;;;;4933590;29;20032;-73
2024/02/10 01:18:52;;;;;;;39.47;20.38;;;8.00;99.90;;;;;;4933752;29;20115;-72
2024/02/10 01:21:18;;;;;;;33.92;19.40;;;7.90;99.90;;;;;;4934107;29;20032;-72
2024/02/10 01:23:46;;;;;;;36.05;20.92;;;7.90;99.90;;;;;;4934684;29;20031;-73
2024/02/10 01:26:13;;;;;;;41.40;21.83;;;7.90;99.90;;;;;;4934137;29;20047;-71
2024/02/10 01:28:44;;;;;;;43.05;21.10;;;7.80;99.90;;;;;;4934071;29;20031;-72
2024/02/10 01:31:12;;;;;;;35.97;19.52;;;7.80;99.90;;;;;;4933223;29;20028;-73
2024/02/10 01:33:41;;;;;;;44.40;21.58;;;7.80;99.90;;;;;;4931884;29;20035;-72
2024/02/10 01:36:09;;;;;;;37.10;20.80;;;7.80;99.90;;;;;;4934100;29;20030;-73
2024/02/10 01:38:42;;;;;;;38.70;20.30;;;7.80;99.90;;;;;;4933333;29;20036;-72
2024/02/10 01:41:09;;;;;;;38.28;21.00;;;7.80;99.90;;;;;;4937135;29;20382;-72
2024/02/10 01:43:38;;;;;;;33.97;18.73;;;7.80;99.90;;;;;;4936280;29;20051;-72
2024/02/10 01:46:05;;;;;;;40.20;21.67;;;7.80;99.90;;;;;;4937651;29;20043;-73
2024/02/10 01:48:31;;;;;;;35.85;20.70;;;7.80;99.90;;;;;;4935847;29;20031;-72
2024/02/10 01:50:57;;;;;;;39.65;20.85;;;7.80;99.90;;;;;;4937553;29;20055;-75
2024/02/10 01:53:24;;;;;;;38.20;21.83;;;7.90;99.90;;;;;;4936520;29;20035;-72
2024/02/10 01:55:51;;;;;;;40.30;20.38;;;7.90;99.90;;;;;;4935943;29;20059;-72
2024/02/10 01:58:18;;;;;;;42.95;21.83;;;7.90;99.90;;;;;;4936092;29;20067;-73
2024/02/10 02:00:45;;;;;;;39.13;21.23;;;8.00;99.90;;;;;;4937848;29;20058;-72
2024/02/10 02:03:10;;;;;;;35.40;20.10;;;8.00;99.90;;;;;;4937496;29;20087;-74
2024/02/10 02:05:39;;;;;;;35.35;19.95;;;8.00;99.90;;;;;;4936184;29;20024;-72
2024/02/10 02:08:05;;;;;;;32.22;19.23;;;7.90;99.90;;;;;;4937506;29;20020;-72
2024/02/10 02:10:32;;;;;;;33.70;19.10;;;7.90;99.90;;;;;;4953579;28;20069;-73
2024/02/10 02:12:57;;;;;;;36.40;19.55;;;7.90;99.90;;;;;;4939176;29;20680;-74
2024/02/10 02:15:27;;;;;;;42.97;19.90;;;7.90;99.90;;;;;;4956951;29;20032;-73
2024/02/10 02:17:55;;;;;;;33.03;19.15;;;7.80;99.90;;;;;;4939441;29;20032;-73
2024/02/10 02:20:20;;;;;;;39.78;20.90;;;7.80;99.90;;;;;;4956301;28;20410;-73
2024/02/10 02:22:50;;;;;;;36.05;20.30;;;7.90;99.90;;;;;;4939025;29;20027;-72
2024/02/10 02:25:16;;;;;;;40.35;19.48;;;7.80;99.90;;;;;;4954459;29;20035;-74
2024/02/10 02:27:42;;;;;;;34.03;19.45;;;7.80;99.90;;;;;;4956281;28;20385;-73
2024/02/10 02:30:08;;;;;;;31.73;18.42;;;7.80;99.90;;;;;;4955310;29;20023;-73
2024/02/10 02:32:34;;;;;;;39.55;19.20;;;7.80;99.90;;;;;;4955788;28;20023;-72
2024/02/10 02:35:09;;;;;;;38.95;19.85;;;7.80;99.90;;;;;;4938904;29;20034;-73
2024/02/10 02:37:41;;;;;;;32.53;19.08;;;7.80;99.90;;;;;;4955823;28;20039;-73
2024/02/10 02:40:09;;;;;;;41.58;20.90;;;7.80;99.90;;;;;;4955671;28;20028;-73
2024/02/10 02:42:34;;;;;;;43.55;20.95;;;7.80;99.90;;;;;;4955388;28;20027;-72
2024/02/10 02:45:10;;;;;;;52.97;22.38;;;7.80;99.90;;;;;;4955799;28;20054;-73
2024/02/10 02:47:36;;;;;;;38.83;21.15;;;7.80;99.90;;;;;;4955686;28;20124;-73
2024/02/10 02:50:09;;;;;;;37.95;21.27;;;7.90;99.90;;;;;;4955110;28;20105;-73
2024/02/10 02:52:36;;;;;;;36.08;20.13;;;7.80;99.90;;;;;;4955050;28;20033;-72
2024/02/10 02:55:02;;;;;;;42.55;21.45;;;7.90;99.90;;;;;;4938435;29;20465;-73
2024/02/10 02:57:31;;;;;;;45.10;21.20;;;7.90;99.90;;;;;;4938524;29;20031;-73
2024/02/10 02:59:57;;;;;;;47.05;22.02;;;7.90;99.90;;;;;;4952527;29;20027;-74
2024/02/10 03:02:23;;;;;;;45.25;23.52;;;7.90;99.90;;;;;;4955697;28;20028;-71
2024/02/10 03:04:48;;;;;;;41.50;20.40;;;8.00;99.90;;;;;;4938464;29;20054;-72
2024/02/10 03:07:17;;;;;;;43.90;22.52;;;8.00;99.90;;;;;;4954357;28;20046;-72
2024/02/10 03:09:46;;;;;;;39.70;20.90;;;7.90;99.90;;;;;;4955131;28;20202;-72
2024/02/10 03:12:11;;;;;;;45.10;20.73;;;8.00;99.90;;;;;;4955066;28;20043;-73
2024/02/10 03:14:39;;;;;;;41.30;20.80;;;7.90;99.90;;;;;;4955101;28;20035;-71
2024/02/10 03:17:07;;;;;;;46.72;22.17;;;8.00;99.90;;;;;;4955088;29;20028;-73
2024/02/10 03:19:36;;;;;;;44.63;22.67;;;7.90;99.90;;;;;;4954968;28;20027;-74
2024/02/10 03:22:03;;;;;;;42.90;22.30;;;7.90;99.90;;;;;;4954317;28;20023;-74
2024/02/10 03:24:30;;;;;;;37.95;20.00;;;7.90;99.90;;;;;;4938288;29;20027;-72
2024/02/10 03:26:56;;;;;;;42.80;20.80;;;7.90;99.90;;;;;;4937924;29;20023;-72
2024/02/10 03:29:22;;;;;;;46.38;22.23;;;7.90;99.90;;;;;;4954269;28;20023;-72
2024/02/10 03:31:47;;;;;;;47.58;22.98;;;8.00;99.90;;;;;;4937826;29;20023;-75
2024/02/10 03:34:13;;;;;;;48.38;22.67;;;7.90;99.90;;;;;;4954942;28;20743;-73
2024/02/10 03:36:38;;;;;;;53.45;22.42;;;8.00;99.90;;;;;;4954568;28;20039;-72
2024/02/10 03:39:07;;;;;;;48.30;24.02;;;8.00;99.90;;;;;;4954876;28;20075;-73
2024/02/10 03:41:33;;;;;;;54.35;22.92;;;8.00;99.90;;;;;;4954640;28;20035;-73
2024/02/10 03:44:00;;;;;;;47.97;22.33;;;8.00;99.90;;;;;;4954407;29;20182;-74
2024/02/10 03:46:26;;;;;;;44.50;23.63;;;8.10;99.90;;;;;;4955267;29;20182;-72
2024/02/10 03:48:52;;;;;;;49.90;23.58;;;8.00;99.90;;;;;;4954689;28;20703;-73
2024/02/10 03:51:18;;;;;;;40.33;21.65;;;8.00;99.90;;;;;;4937175;29;20023;-73
2024/02/10 03:53:43;;;;;;;47.47;23.75;;;8.00;99.90;;;;;;4954699;29;20031;-73
2024/02/10 03:56:09;;;;;;;65.82;24.23;;;8.00;99.90;;;;;;4936961;29;20038;-75
2024/02/10 03:58:40;;;;;;;51.22;24.98;;;8.00;99.90;;;;;;4954638;28;20031;-73
2024/02/10 04:01:08;;;;;;;48.55;24.23;;;8.00;99.90;;;;;;4954736;28;20078;-73
2024/02/10 04:03:34;;;;;;;47.85;23.80;;;8.00;99.90;;;;;;4954024;28;20031;-74
2024/02/10 04:06:00;;;;;;;49.92;23.10;;;8.00;99.90;;;;;;4953707;28;20026;-74
2024/02/10 04:08:25;;;;;;;45.03;24.17;;;8.00;99.90;;;;;;4954276;28;20035;-74
2024/02/10 04:10:51;;;;;;;47.83;23.98;;;8.00;99.90;;;;;;4936744;29;20031;-74
2024/02/10 04:13:16;;;;;;;47.78;23.95;;;8.10;99.90;;;;;;4936929;29;20102;-72
2024/02/10 04:15:43;;;;;;;49.08;22.80;;;8.00;99.90;;;;;;4954091;28;20031;-73
2024/02/10 04:18:08;;;;;;;48.03;25.10;;;8.10;99.90;;;;;;4953550;28;20034;-73
2024/02/10 04:20:34;;;;;;;54.90;24.83;;;8.00;99.90;;;;;;4954600;28;20027;-74
2024/02/10 04:23:03;;;;;;;44.25;24.08;;;8.10;99.90;;;;;;4953972;28;20023;-73
2024/02/10 04:25:31;;;;;;;54.55;24.45;;;8.10;99.90;;;;;;4954301;29;20023;-73
2024/02/10 04:28:02;;;;;;;49.80;25.50;;;8.00;99.90;;;;;;4937259;29;20027;-73
2024/02/10 04:30:30;;;;;;;51.90;24.42;;;8.00;99.90;;;;;;4953665;28;20495;-72
2024/02/10 04:32:55;;;;;;;46.10;24.50;;;8.00;99.90;;;;;;4936872;29;20118;-72
2024/02/10 04:35:23;;;;;;;49.20;23.33;;;8.00;99.90;;;;;;4954156;28;20928;-71
2024/02/10 04:37:51;;;;;;;49.08;23.85;;;8.10;99.90;;;;;;4953894;28;20020;-73
2024/02/10 04:40:23;;;;;;;56.13;24.48;;;8.00;99.90;;;;;;4953601;28;20035;-73
2024/02/10 04:42:53;;;;;;;49.08;24.33;;;8.00;99.90;;;;;;4953729;28;20020;-74
2024/02/10 04:45:26;;;;;;;47.45;23.80;;;8.00;99.90;;;;;;4953284;29;20038;-73
2024/02/10 04:47:53;;;;;;;47.60;23.30;;;8.00;99.90;;;;;;4936597;28;20046;-75
2024/02/10 04:50:20;;;;;;;53.00;24.15;;;8.00;99.90;;;;;;4953699;28;20031;-74
2024/02/10 04:52:46;;;;;;;47.33;24.10;;;8.00;99.90;;;;;;4937017;28;20058;-73
2024/02/10 04:55:13;;;;;;;46.92;24.42;;;8.10;99.90;;;;;;4952540;28;20436;-72
2024/02/10 04:57:42;;;;;;;51.30;24.45;;;8.10;99.90;;;;;;4953255;28;20020;-73
2024/02/10 05:00:12;;;;;;;53.63;24.58;;;8.00;99.90;;;;;;4953607;29;20020;-73
2024/02/10 05:02:38;;;;;;;48.05;24.67;;;8.10;99.90;;;;;;4936566;29;20394;-73
2024/02/10 05:05:07;;;;;;;51.92;24.92;;;8.10;99.90;;;;;;4950513;28;20492;-73
2024/02/10 05:07:32;;;;;;;51.00;24.25;;;8.10;99.90;;;;;;4952081;28;20051;-72
2024/02/10 05:10:00;;;;;;;49.88;24.17;;;8.10;99.90;;;;;;4935772;29;20040;-74
2024/02/10 05:12:26;;;;;;;61.13;25.40;;;8.10;99.90;;;;;;4953439;29;21389;-72
2024/02/10 05:14:52;;;;;;;60.45;26.10;;;8.10;99.90;;;;;;4938660;29;20066;-74
2024/02/10 05:17:19;;;;;;;60.05;26.75;;;8.20;99.90;;;;;;4956892;28;20031;-73
2024/02/10 05:19:44;;;;;;;54.95;24.13;;;8.20;99.90;;;;;;4940162;29;20114;-73
2024/02/10 05:22:13;;;;;;;48.67;22.75;;;8.20;99.90;;;;;;4957697;28;20035;-72
2024/02/10 05:24:48;;;;;;;41.97;22.00;;;8.20;99.90;;;;;;4957644;28;20023;-73
2024/02/10 05:27:14;;;;;;;48.75;23.25;;;8.10;99.90;;;;;;4955854;28;20106;-72
2024/02/10 05:29:41;;;;;;;57.33;23.98;;;8.10;99.90;;;;;;4940245;29;20028;-74
2024/02/10 05:32:06;;;;;;;41.08;21.77;;;8.20;99.90;;;;;;4957206;28;20062;-73
2024/02/10 05:34:32;;;;;;;40.53;20.52;;;8.10;99.90;;;;;;4957044;28;20400;-73
2024/02/10 05:37:03;;;;;;;46.60;23.23;;;8.10;99.90;;;;;;4956675;28;20101;-74
2024/02/10 05:39:29;;;;;;;41.13;22.00;;;8.10;99.90;;;;;;4956773;29;20026;-73
2024/02/10 05:41:57;;;;;;;43.55;21.55;;;8.10;99.90;;;;;;4956442;28;20037;-74
2024/02/10 05:44:23;;;;;;;47.25;23.20;;;8.10;99.90;;;;;;4957214;29;20023;-74
2024/02/10 05:46:49;;;;;;;54.60;22.25;;;8.10;99.90;;;;;;4957511;29;20134;-73
2024/02/10 05:49:18;;;;;;;94.65;26.13;;;8.10;99.90;;;;;;4939972;28;20078;-73
2024/02/10 05:51:44;;;;;;;57.30;23.83;;;8.10;99.90;;;;;;4940867;28;20463;-73
2024/02/10 05:54:09;;;;;;;52.75;24.98;;;8.10;99.90;;;;;;4939423;28;20050;-72
2024/02/10 05:56:35;;;;;;;59.78;25.33;;;8.10;99.90;;;;;;4955745;28;20116;-74
2024/02/10 05:59:04;;;;;;;56.40;24.80;;;8.20;99.90;;;;;;4957173;28;20025;-74
2024/02/10 06:01:30;;;;;;;69.05;24.48;;;8.10;99.90;;;;;;4956038;28;20110;-74
2024/02/10 06:03:56;;;;;;;81.95;25.70;;;8.10;99.90;;;;;;4954226;28;20057;-75
2024/02/10 06:06:22;;;;;;;112.95;26.20;;;8.20;99.90;;;;;;4955542;28;20039;-73
2024/02/10 06:08:48;;;;;;;174.45;28.10;;;8.10;99.90;;;;;;4955476;28;20052;-72
2024/02/10 06:11:19;;;;;;;217.23;30.33;;;8.20;99.90;;;;;;4956241;28;20036;-74
2024/02/10 06:13:50;;;;;;;129.98;25.98;;;8.20;99.90;;;;;;4940179;28;20644;-73
2024/02/10 06:16:16;;;;;;;53.83;22.10;;;8.20;99.90;;;;;;4937936;28;20043;-74
2024/02/10 06:18:41;;;;;;;81.00;22.60;;;8.10;99.90;;;;;;4956806;28;20024;-75
2024/02/10 06:21:07;;;;;;;53.63;22.02;;;8.10;99.90;;;;;;4938751;29;20447;-73
2024/02/10 06:23:34;;;;;;;261.45;28.55;;;8.10;99.90;;;;;;4939251;29;20023;-74
2024/02/10 06:26:00;;;;;;;85.78;25.75;;;8.00;99.90;;;;;;4956425;28;20074;-73
2024/02/10 06:28:25;;;;;;;54.63;21.35;;;8.00;99.90;;;;;;4939139;29;20036;-74
2024/02/10 06:30:51;;;;;;;83.70;22.83;;;8.00;99.90;;;;;;4955310;28;20036;-72
2024/02/10 06:33:22;;;;;;;192.20;26.50;;;8.00;99.90;;;;;;4938767;29;20412;-73
2024/02/10 06:35:48;;;;;;;218.80;26.15;;;7.90;99.90;;;;;;4956637;28;20019;-73
2024/02/10 06:38:15;;;;;;;102.45;22.83;;;7.90;99.90;;;;;;4954610;28;20031;-73
2024/02/10 06:40:41;;;;;;;109.50;23.60;;;7.90;99.90;;;;;;4955470;28;20114;-73
2024/02/10 06:43:12;;;;;;;192.98;27.38;;;7.90;99.90;;;;;;4955532;28;20032;-73
2024/02/10 06:45:38;;;;;;;113.60;24.95;;;8.00;99.90;;;;;;4956772;29;20091;-72
2024/02/10 06:48:05;;;;;;;111.72;26.05;;;8.00;99.90;;;;;;4938002;29;20027;-74
2024/02/10 06:50:31;;;;;;;73.70;25.08;;;8.00;99.90;;;;;;4955341;28;20432;-74
2024/02/10 06:53:00;;;;;;;77.90;24.42;;;8.00;99.90;;;;;;4936884;28;20058;-74
2024/02/10 06:55:27;;;;;;;260.02;34.05;;;8.00;99.90;;;;;;4951659;28;20070;-74
2024/02/10 06:57:55;;;;;;;94.90;26.60;;;8.10;99.90;;;;;;4951865;28;20037;-72
2024/02/10 07:00:22;;;;;;;73.25;23.98;;;8.10;99.90;;;;;;4956004;28;20480;-72
2024/02/10 07:02:49;;;;;;;110.28;24.55;;;8.10;99.90;;;;;;4951659;28;20043;-73
2024/02/10 07:05:16;;;;;;;124.95;23.80;;;8.10;99.90;;;;;;4937155;29;20031;-74
2024/02/10 07:07:51;;;;;;;65.88;23.65;;;8.20;99.90;;;;;;4953997;28;20118;-73
2024/02/10 07:10:21;;;;;;;83.82;25.20;;;8.20;99.90;;;;;;4952813;28;20472;-74
2024/02/10 07:12:48;;;;;;;122.00;26.00;;;8.20;99.90;;;;;;4935855;29;20062;-72
2024/02/10 07:15:19;;;;;;;66.95;23.60;;;8.10;99.90;;;;;;4952745;29;20804;-72
2024/02/10 07:17:49;;;;;;;55.42;23.60;;;8.20;99.90;;;;;;4954411;28;20560;-72
2024/02/10 07:20:23;;;;;;;103.60;23.55;;;8.20;99.90;;;;;;4955389;28;20028;-74
2024/02/10 07:22:58;;;;;;;100.57;24.70;;;8.20;99.90;;;;;;4955026;28;20373;-73
2024/02/10 07:25:33;;;;;;;;;;;8.30;99.90;;;;;;4954441;28;20066;-72
2024/02/10 07:28:01;;;;;;;89.53;23.60;;;8.30;99.90;;;;;;4955612;28;19974;-73
2024/02/10 07:30:28;;;;;;;64.95;23.60;;;8.30;99.90;;;;;;4954250;28;20122;-75
2024/02/10 07:33:03;;;;;;;74.70;24.40;;;8.30;99.90;;;;;;4955661;28;20504;-72
2024/02/10 07:35:32;;;;;;;52.67;23.38;;;8.30;99.90;;;;;;4953795;28;20035;-73
2024/02/10 07:37:58;;;;;;;47.38;22.85;;;8.30;99.90;;;;;;4936301;28;20036;-73
2024/02/10 07:40:23;;;;;;;125.10;25.45;;;8.40;99.90;;;;;;4954380;28;20071;-72
2024/02/10 07:42:52;;;;;;;44.85;21.08;;;8.40;99.90;;;;;;4950994;29;20088;-72
2024/02/10 07:45:18;;;;;;;54.75;22.52;;;8.40;99.90;;;;;;4947339;29;20185;-73
2024/02/10 07:47:47;;;;;;;43.72;20.50;;;8.40;99.90;;;;;;4933781;29;20047;-73
2024/02/10 07:50:14;;;;;;;49.47;21.30;;;8.40;99.90;;;;;;4952841;28;20091;-72
2024/02/10 07:52:42;;;;;;;90.00;24.67;;;8.40;99.90;;;;;;4952708;29;20035;-73
2024/02/10 07:55:12;;;;;;;63.97;23.70;;;8.40;99.90;;;;;;4948803;28;20042;-72
2024/02/10 07:57:38;;;;;;;51.30;23.33;;;8.50;99.90;;;;;;4951774;28;20074;-73
2024/02/10 08:00:06;;;;;;;47.35;22.33;;;8.50;99.90;;;;;;4951071;29;20036;-71
2024/02/10 08:02:31;;;;;;;51.33;23.58;;;8.50;99.90;;;;;;4951037;29;20034;-72
2024/02/10 08:04:58;;;;;;;55.35;24.52;;;8.50;99.90;;;;;;4951585;28;20032;-73
2024/02/10 08:07:29;;;;;;;61.03;26.17;;;8.60;99.90;;;;;;4954263;28;20071;-72
2024/02/10 08:09:58;;;;;;;55.17;24.35;;;8.60;99.90;;;;;;4955300;28;20098;-74
2024/02/10 08:12:29;;;;;;;55.80;24.13;;;8.70;99.90;;;;;;4954496;28;20035;-73
2024/02/10 08:14:56;;;;;;;55.25;25.48;;;8.80;99.90;;;;;;4954607;28;20023;-73
2024/02/10 08:17:30;;;;;;;60.45;25.55;;;8.80;99.90;;;;;;4954196;28;20032;-72
2024/02/10 08:19:59;;;;;;;55.40;24.02;;;8.90;99.90;;;;;;4953890;28;20051;-72
2024/02/10 08:22:34;;;;;;;56.88;24.13;;;8.90;99.90;;;;;;4937536;29;20035;-73
2024/02/10 08:25:01;;;;;;;55.97;24.52;;;8.90;99.90;;;;;;4951545;29;20095;-73
2024/02/10 08:27:28;;;;;;;50.65;22.90;;;8.90;99.90;;;;;;4934855;29;20039;-71
2024/02/10 08:29:54;;;;;;;56.60;25.48;;;9.00;99.90;;;;;;4950462;28;20039;-72
2024/02/10 08:32:19;;;;;;;50.35;23.60;;;9.00;99.90;;;;;;4952978;29;20059;-73
2024/02/10 08:34:45;;;;;;;56.00;25.27;;;9.00;99.90;;;;;;4937808;29;20036;-72
2024/02/10 08:37:15;;;;;;;54.20;24.45;;;9.00;99.90;;;;;;4937488;29;20024;-71
2024/02/10 08:39:45;;;;;;;59.92;25.65;;;9.00;99.90;;;;;;4936357;29;20023;-74
2024/02/10 08:42:15;;;;;;;52.05;24.88;;;9.00;99.90;;;;;;4952561;28;20027;-73
2024/02/10 08:44:44;;;;;;;54.75;24.90;;;9.00;99.90;;;;;;4953651;28;20044;-72
2024/02/10 08:47:10;;;;;;;55.92;25.98;;;9.00;99.90;;;;;;4936169;29;20456;-73
2024/02/10 08:49:37;;;;;;;65.63;26.52;;;9.00;99.90;;;;;;4953531;29;20032;-73
2024/02/10 08:52:04;;;;;;;57.75;25.45;;;9.10;99.90;;;;;;4953478;28;20023;-72
2024/02/10 08:54:32;;;;;;;56.53;25.98;;;9.10;99.90;;;;;;4953345;28;20028;-71
2024/02/10 08:57:02;;;;;;;63.15;25.33;;;9.20;99.90;;;;;;4935144;29;20024;-74
2024/02/10 08:59:31;;;;;;;60.42;26.15;;;9.20;99.90;;;;;;4952716;28;20023;-71
2024/02/10 09:02:04;;;;;;;59.50;26.58;;;9.10;99.90;;;;;;4950745;28;20027;-74
2024/02/10 09:04:30;;;;;;;62.08;26.48;;;9.10;99.90;;;;;;4939286;28;20093;-72
2024/02/10 09:06:56;;;;;;;61.58;26.42;;;9.20;99.90;;;;;;4950445;29;20043;-73
2024/02/10 09:09:23;;;;;;;55.45;26.75;;;9.20;99.90;;;;;;4952053;28;20069;-73
2024/02/10 09:11:48;;;;;;;74.68;29.30;;;9.20;99.90;;;;;;4953782;28;20115;-74
2024/02/10 09:14:14;;;;;;;100.40;33.28;;;9.20;99.90;;;;;;4950997;28;20381;-73
2024/02/10 09:16:40;;;;;;;78.88;31.77;;;9.30;99.90;;;;;;4954016;28;20023;-74
2024/02/10 09:19:06;;;;;;;61.20;26.77;;;9.30;99.90;;;;;;4952527;28;20028;-72
2024/02/10 09:21:31;;;;;;;61.50;28.30;;;9.30;99.90;;;;;;4952303;28;20024;-74
2024/02/10 09:23:58;;;;;;;60.13;27.52;;;9.40;99.90;;;;;;4936315;29;20108;-71
2024/02/10 09:26:27;;;;;;;56.53;25.80;;;9.40;99.90;;;;;;4931106;29;20536;-71
2024/02/10 09:28:52;;;;;;;52.53;25.25;;;9.40;99.90;;;;;;4953089;28;20027;-73
2024/02/10 09:31:19;;;;;;;52.95;24.73;;;9.50;99.90;;;;;;4946721;29;20039;-74
2024/02/10 09:33:45;;;;;;;53.83;25.10;;;9.50;99.90;;;;;;4951935;28;20358;-72
2024/02/10 09:36:11;;;;;;;54.97;25.45;;;9.50;99.90;;;;;;4952138;28;20031;-74
2024/02/10 09:38:41;;;;;;;51.10;24.27;;;9.60;99.90;;;;;;4953791;28;20024;-73
2024/02/10 09:41:08;;;;;;;51.00;24.73;;;9.60;99.90;;;;;;4953700;28;20024;-74
2024/02/10 09:43:39;;;;;;;60.08;26.33;;;9.60;99.90;;;;;;4951397;28;20040;-74
2024/02/10 09:46:10;;;;;;;66.30;26.65;;;9.70;99.90;;;;;;4934289;28;20054;-73
2024/02/10 09:48:47;;;;;;;74.63;29.20;;;9.80;99.90;;;;;;4934475;29;20396;-73
2024/02/10 09:51:14;;;;;;;73.90;26.33;;;9.80;99.90;;;;;;4953185;28;20028;-73
2024/02/10 09:53:40;;;;;;;60.80;26.60;;;9.80;99.90;;;;;;4950981;28;20027;-72
2024/02/10 09:56:15;;;;;;;64.53;26.33;;;9.90;99.90;;;;;;4953839;28;20063;-72
2024/02/10 09:58:46;;;;;;;56.83;26.63;;;10.00;99.90;;;;;;4950266;28;20124;-73
2024/02/10 10:01:13;;;;;;;59.53;26.63;;;10.00;99.90;;;;;;4952023;28;20023;-73
2024/02/10 10:03:39;;;;;;;68.40;27.60;;;10.10;99.90;;;;;;4954245;28;20051;-73
2024/02/10 10:06:09;;;;;;;64.03;27.38;;;10.20;99.90;;;;;;4956951;28;20043;-73
2024/02/10 10:08:41;;;;;;;60.10;26.10;;;10.30;99.90;;;;;;4953890;28;20028;-72
2024/02/10 10:11:08;;;;;;;52.47;26.02;;;10.40;99.90;;;;;;4955394;29;20027;-74
2024/02/10 10:13:38;;;;;;;50.05;24.05;;;10.50;99.90;;;;;;4938084;28;20034;-75
2024/02/10 10:16:09;;;;;;;47.35;25.15;;;10.60;99.90;;;;;;4954210;28;20029;-73
2024/02/10 10:18:35;;;;;;;45.30;22.30;;;10.70;99.90;;;;;;4956357;29;20042;-74
2024/02/10 10:21:10;;;;;;;46.38;22.08;;;10.80;99.90;;;;;;4955398;29;20035;-74
2024/02/10 10:23:36;;;;;;;36.47;20.38;;;10.90;99.90;;;;;;4953623;28;20027;-72
2024/02/10 10:26:03;;;;;;;41.45;22.17;;;10.90;99.90;;;;;;4952898;28;20043;-73
2024/02/10 10:28:33;;;;;;;44.35;23.15;;;10.90;99.90;;;;;;4935851;29;20035;-74
2024/02/10 10:30:59;;;;;;;55.92;24.23;;;11.00;99.90;;;;;;4939018;28;20042;-73
2024/02/10 10:33:27;;;;;;;42.10;21.90;;;11.00;99.90;;;;;;4955824;28;20032;-74
2024/02/10 10:35:54;;;;;;;44.15;20.48;;;11.10;99.90;;;;;;4955224;28;20038;-73
2024/02/10 10:38:24;;;;;;;37.00;19.52;;;11.20;99.90;;;;;;4937527;28;20031;-74
2024/02/10 10:40:51;;;;;;;32.83;18.65;;;11.30;99.90;;;;;;4934159;29;20122;-73
2024/02/10 10:43:20;;;;;;;31.48;18.00;;;11.40;99.90;;;;;;4946663;28;20026;-74
2024/02/10 10:45:46;;;;;;;30.80;16.00;;;11.50;99.90;;;;;;4932197;29;20024;-74
2024/02/10 10:48:12;;;;;;;27.35;14.85;;;11.60;99.90;;;;;;4947050;28;20028;-74
2024/02/10 10:50:37;;;;;;;23.58;14.48;;;11.60;99.90;;;;;;4954150;28;20087;-73
2024/02/10 10:53:06;;;;;;;23.80;13.30;;;11.70;99.90;;;;;;4952954;28;20233;-74
2024/02/10 10:55:58;;;;;;;22.33;13.32;;;11.80;99.90;;;;;;4955761;28;20058;-72
2024/02/10 10:58:33;;;;;;;21.77;13.23;;;12.00;99.90;;;;;;4939763;29;20100;-72
2024/02/10 11:00:59;;;;;;;24.90;14.50;;;12.20;99.90;;;;;;4955793;28;20038;-75
2024/02/10 11:03:25;;;;;;;24.92;13.30;;;12.50;99.90;;;;;;4935508;29;20062;-74
2024/02/10 11:05:51;;;;;;;20.25;12.55;;;12.80;99.90;;;;;;4937938;29;20035;-75
2024/02/10 11:08:25;;;;;;;22.25;12.15;;;12.90;99.90;;;;;;4955382;28;20035;-74
2024/02/10 11:11:01;;;;;;;20.10;11.18;;;13.00;99.90;;;;;;4916445;29;20139;-74
2024/02/10 11:13:28;;;;;;;21.10;12.60;;;13.00;99.90;;;;;;4910198;29;20035;-73
2024/02/10 11:16:14;;;;;;;18.50;11.18;;;13.20;99.90;;;;;;4921219;29;20139;-73
2024/02/10 11:18:43;;;;;;;20.92;11.43;;;13.20;99.90;;;;;;4912331;29;20092;-75
2024/02/10 11:21:21;;;;;;;20.60;11.98;;;13.10;99.90;;;;;;4918109;29;20088;-73
2024/02/10 11:24:07;;;;;;;19.33;11.48;;;13.00;99.90;;;;;;4914039;29;20108;-75
2024/02/10 11:26:36;;;;;;;23.48;11.68;;;12.80;99.90;;;;;;4913609;29;20036;-73
2024/02/10 11:29:06;;;;;;;17.38;10.55;;;12.70;99.90;;;;;;4912960;29;20107;-74
2024/02/10 11:31:39;;;;;;;19.95;11.50;;;12.60;99.90;;;;;;4904178;29;20047;-75
2024/02/10 11:34:05;;;;;;;21.58;11.38;;;12.60;99.90;;;;;;4916481;29;20020;-74
2024/02/10 11:36:35;;;;;;;17.45;11.07;;;12.70;99.90;;;;;;4914704;29;20025;-74
2024/02/10 11:39:02;;;;;;;19.25;11.63;;;12.90;99.90;;;;;;4917215;29;20036;-74
2024/02/10 11:41:28;;;;;;;17.80;11.35;;;13.20;99.90;;;;;;4917148;29;20124;-73
2024/02/10 11:43:54;;;;;;;19.85;10.70;;;13.50;99.90;;;;;;4915881;29;20040;-73
2024/02/10 11:46:20;;;;;;;16.75;10.60;;;13.90;99.90;;;;;;4915562;29;20135;-72
2024/02/10 11:48:46;;;;;;;15.50;9.43;;;14.30;99.90;;;;;;4917432;29;20110;-71
2024/02/10 11:51:12;;;;;;;17.95;8.85;;;14.70;99.90;;;;;;4915331;29;20040;-73
2024/02/10 11:53:42;;;;;;;12.43;8.63;;;15.00;99.90;;;;;;4916866;29;20048;-73
2024/02/10 11:56:08;;;;;;;13.00;7.88;;;15.30;99.90;;;;;;4916745;29;20057;-73
2024/02/10 11:58:35;;;;;;;13.27;8.05;;;15.50;99.90;;;;;;4917499;29;20028;-73
2024/02/10 12:01:00;;;;;;;13.15;7.32;;;15.80;99.90;;;;;;4915068;29;20043;-73
2024/02/10 12:03:29;;;;;;;16.10;8.13;;;15.90;99.90;;;;;;4916424;29;20064;-73
2024/02/10 12:05:56;;;;;;;14.98;7.63;;;16.20;99.90;;;;;;4916950;29;20039;-72
2024/02/10 12:08:21;;;;;;;14.80;8.25;;;16.10;99.90;;;;;;4916684;29;20028;-73
2024/02/10 12:10:48;;;;;;;12.80;6.75;;;16.20;99.90;;;;;;4933894;29;20046;-73
2024/02/10 12:13:19;;;;;;;9.95;6.95;;;16.40;99.90;;;;;;4935390;29;20024;-72
2024/02/10 12:15:44;;;;;;;11.40;7.70;;;16.70;99.90;;;;;;4935853;29;20031;-73
2024/02/10 12:18:11;;;;;;;11.05;6.28;;;16.90;99.90;;;;;;4935859;29;20039;-74
2024/02/10 12:20:39;;;;;;;8.75;6.28;;;17.10;99.90;;;;;;4934870;29;20036;-75
2024/02/10 12:23:05;;;;;;;8.13;5.65;;;17.10;99.90;;;;;;4935208;29;20027;-74
2024/02/10 12:25:32;;;;;;;7.80;6.28;;;17.10;99.90;;;;;;4935903;29;20056;-75
2024/02/10 12:27:58;;;;;;;8.00;5.97;;;17.10;99.90;;;;;;4933912;29;20050;-75
2024/02/10 12:30:23;;;;;;;6.60;5.05;;;17.10;99.90;;;;;;4935889;29;20070;-73
2024/02/10 12:32:51;;;;;;;7.97;5.90;;;17.10;99.90;;;;;;4934475;29;20052;-74
2024/02/10 12:35:17;;;;;;;9.90;5.40;;;17.20;99.90;;;;;;4933544;29;20115;-74
2024/02/10 12:37:47;;;;;;;8.07;5.15;;;17.30;99.90;;;;;;4934734;29;20035;-75